Time;durP1;ratioP1;P1;durP2;ratioP2;P2;SDS_P1;SDS_P2;PMS_P1;PMS_P2;Temp;Humidity;BMP_temperature;BMP_pressure;BME280_temperature;BME280_humidity;BME280_pressure;Samples;Min_cycle;Max_cycle;Signal;HPM_P1;HPM_P2
2022/04/06 00:00:13;;;;;;;20.77;6.72;;;8.80;99.90;;;;;;5013019;28;20469;-71
2022/04/06 00:02:39;;;;;;;25.45;8.52;;;8.80;99.90;;;;;;5016709;28;20485;-71
2022/04/06 00:05:09;;;;;;;24.42;8.15;;;8.80;99.90;;;;;;5027748;28;20485;-71
2022/04/06 00:07:39;;;;;;;24.05;7.78;;;8.80;99.90;;;;;;5022530;28;20065;-71
2022/04/06 00:10:07;;;;;;;18.00;7.28;;;8.80;99.90;;;;;;5046900;28;20603;-71
2022/04/06 00:12:34;;;;;;;25.77;7.50;;;8.80;99.90;;;;;;5020113;28;20041;-71
2022/04/06 00:15:00;;;;;;;21.55;6.95;;;8.80;99.90;;;;;;5038625;28;20068;-71
2022/04/06 00:17:25;;;;;;;25.27;8.32;;;8.80;99.90;;;;;;5020708;28;20045;-71
2022/04/06 00:19:51;;;;;;;23.37;8.27;;;8.80;99.90;;;;;;5030088;28;20118;-71
2022/04/06 00:22:16;;;;;;;28.23;7.30;;;8.80;99.90;;;;;;5018033;28;20439;-71
2022/04/06 00:24:42;;;;;;;23.20;8.20;;;8.80;99.90;;;;;;5034614;28;20040;-72
2022/04/06 00:27:07;;;;;;;21.50;7.20;;;8.80;99.90;;;;;;5032375;28;20433;-72
2022/04/06 00:29:33;;;;;;;24.40;7.13;;;8.80;99.90;;;;;;5020843;28;20390;-71
2022/04/06 00:31:58;;;;;;;20.63;7.13;;;8.80;99.90;;;;;;5021042;28;20406;-72
2022/04/06 00:35:28;;;;;;;22.97;7.50;;;8.80;99.90;;;;;;5034130;28;20040;-71
2022/04/06 00:37:10;;;;;;;21.38;7.20;;;8.80;99.90;;;;;;5033929;28;20038;-72
2022/04/06 00:39:36;;;;;;;23.77;8.23;;;8.80;99.90;;;;;;5046122;28;20056;-72
2022/04/06 00:42:01;;;;;;;24.83;8.10;;;8.80;99.90;;;;;;5026184;28;20492;-72
2022/04/06 00:44:28;;;;;;;17.00;6.33;;;8.80;99.90;;;;;;5024972;28;20527;-71
2022/04/06 00:46:54;;;;;;;18.85;6.30;;;8.90;99.90;;;;;;5029244;28;20818;-72
2022/04/06 00:49:20;;;;;;;19.60;5.30;;;8.90;99.90;;;;;;5023377;28;20033;-72
2022/04/06 00:51:47;;;;;;;13.18;4.55;;;8.80;99.90;;;;;;5019620;28;20091;-71
2022/04/06 00:54:14;;;;;;;16.20;4.45;;;8.90;99.90;;;;;;5024604;28;20045;-71
2022/04/06 00:56:40;;;;;;;18.70;5.03;;;8.90;99.90;;;;;;5038861;28;20186;-72
2022/04/06 00:59:06;;;;;;;16.88;4.65;;;9.00;99.90;;;;;;5030732;28;20053;-72
2022/04/06 01:01:32;;;;;;;14.23;3.90;;;9.00;99.90;;;;;;5025816;28;20130;-71
2022/04/06 01:03:58;;;;;;;12.63;4.33;;;9.00;99.90;;;;;;5045279;28;20065;-72
2022/04/06 01:06:23;;;;;;;10.77;3.77;;;9.00;99.90;;;;;;5046739;28;20848;-72
2022/04/06 01:08:49;;;;;;;11.05;4.00;;;9.00;99.90;;;;;;5033176;28;20067;-72
2022/04/06 01:11:15;;;;;;;19.15;4.55;;;9.00;99.90;;;;;;5010854;28;20036;-72
2022/04/06 01:13:42;;;;;;;13.70;4.75;;;9.00;99.90;;;;;;5021889;28;20041;-72
2022/04/06 01:16:08;;;;;;;;;;;9.00;99.90;;;;;;5043731;28;20505;-71
2022/04/06 01:18:33;;;;;;;20.65;4.93;;;9.10;99.90;;;;;;5042732;28;20081;-72
2022/04/06 01:20:59;;;;;;;15.30;3.87;;;9.00;99.90;;;;;;5045364;28;20451;-72
2022/04/06 01:23:25;;;;;;;15.27;3.80;;;9.10;99.90;;;;;;5026734;28;20064;-72
2022/04/06 01:25:52;;;;;;;15.97;4.37;;;9.10;99.90;;;;;;5024300;28;20394;-72
2022/04/06 01:28:17;;;;;;;13.05;3.47;;;9.10;99.90;;;;;;5039943;28;20699;-72
2022/04/06 01:30:45;;;;;;;10.30;3.30;;;9.10;99.90;;;;;;5027269;28;20142;-72
2022/04/06 01:33:11;;;;;;;17.10;3.67;;;9.10;99.90;;;;;;5029228;28;20041;-72
2022/04/06 01:35:42;;;;;;;13.03;3.43;;;9.10;99.90;;;;;;5021315;28;20071;-72
2022/04/06 01:38:08;;;;;;;14.75;2.95;;;9.10;99.90;;;;;;5040174;28;20385;-71
2022/04/06 01:40:34;;;;;;;13.38;3.25;;;9.10;99.90;;;;;;5027456;28;20048;-72
2022/04/06 01:43:00;;;;;;;11.80;3.23;;;9.10;99.90;;;;;;5019432;28;20401;-71
2022/04/06 01:45:25;;;;;;;10.23;3.60;;;9.10;99.90;;;;;;5043352;28;20308;-72
2022/04/06 01:47:51;;;;;;;11.00;3.87;;;9.10;99.90;;;;;;5028577;28;20724;-72
2022/04/06 01:53:02;;;;;;;14.88;3.15;;;9.10;99.90;;;;;;5038105;28;20226;-72
2022/04/06 01:55:28;;;;;;;10.10;2.75;;;9.10;99.90;;;;;;5042553;28;20051;-72
2022/04/06 01:57:53;;;;;;;9.87;3.13;;;9.10;99.90;;;;;;5024452;28;20040;-72
2022/04/06 02:00:19;;;;;;;9.03;3.10;;;9.10;99.90;;;;;;5041166;28;20531;-72
2022/04/06 02:02:50;;;;;;;12.67;2.60;;;9.10;99.90;;;;;;5043811;28;20401;-72
2022/04/06 02:05:16;;;;;;;8.55;2.47;;;9.10;99.90;;;;;;5041293;28;20327;-72
2022/04/06 02:07:48;;;;;;;10.18;2.28;;;9.20;99.90;;;;;;5022120;28;20051;-72
2022/04/06 02:10:15;;;;;;;13.55;2.47;;;9.10;99.90;;;;;;5006597;28;20087;-71
2022/04/06 02:12:41;;;;;;;7.47;2.50;;;9.10;99.90;;;;;;5002253;28;20040;-71
2022/04/06 02:15:10;;;;;;;7.97;2.53;;;9.10;99.90;;;;;;5022822;28;20048;-71
2022/04/06 02:17:36;;;;;;;10.55;2.92;;;9.10;99.90;;;;;;5026383;28;20048;-71
2022/04/06 02:20:02;;;;;;;6.53;1.93;;;9.10;99.90;;;;;;5023665;28;20056;-71
2022/04/06 02:22:27;;;;;;;5.40;2.33;;;9.10;99.90;;;;;;5014648;28;20123;-71
2022/04/06 02:24:53;;;;;;;12.03;2.67;;;9.10;99.90;;;;;;5015887;28;20813;-71
2022/04/06 02:27:18;;;;;;;15.97;2.20;;;9.10;99.90;;;;;;5031046;28;20037;-72
2022/04/06 02:29:45;;;;;;;5.00;2.00;;;9.10;99.90;;;;;;5022774;28;20142;-71
2022/04/06 02:32:10;;;;;;;6.88;1.75;;;9.10;99.90;;;;;;5022263;28;20037;-71
2022/04/06 02:34:37;;;;;;;7.80;1.53;;;9.10;99.90;;;;;;5016900;28;20037;-71
2022/04/06 02:37:03;;;;;;;9.20;2.08;;;9.10;99.90;;;;;;5018327;28;20044;-71
2022/04/06 02:39:29;;;;;;;9.27;1.88;;;9.00;99.90;;;;;;5018897;28;20129;-71
2022/04/06 02:41:54;;;;;;;4.72;1.90;;;9.00;99.90;;;;;;5037822;28;20124;-71
2022/04/06 02:44:20;;;;;;;8.17;1.43;;;9.00;99.90;;;;;;5022822;28;20057;-71
2022/04/06 02:46:48;;;;;;;10.48;2.40;;;9.00;99.90;;;;;;5038725;28;20044;-71
2022/04/06 02:49:14;;;;;;;4.20;1.20;;;9.10;99.90;;;;;;5025054;28;20579;-71
2022/04/06 02:51:40;;;;;;;12.55;1.98;;;9.10;99.90;;;;;;5023893;28;20049;-71
2022/04/06 02:54:06;;;;;;;5.53;1.73;;;9.10;99.90;;;;;;5022789;28;20351;-72
2022/04/06 02:56:31;;;;;;;6.65;1.75;;;9.10;99.90;;;;;;5028844;28;20464;-71
2022/04/06 02:58:57;;;;;;;8.07;1.70;;;9.10;99.90;;;;;;5028125;28;20041;-71
2022/04/06 03:01:23;;;;;;;11.55;1.75;;;9.10;99.90;;;;;;5019759;28;20135;-71
2022/04/06 03:03:48;;;;;;;5.37;1.73;;;9.10;99.90;;;;;;5027877;28;20090;-71
2022/04/06 03:06:14;;;;;;;10.87;3.20;;;9.10;99.90;;;;;;5042153;28;20037;-71
2022/04/06 03:08:40;;;;;;;7.90;1.70;;;9.10;99.90;;;;;;5015456;28;21180;-71
2022/04/06 03:11:06;;;;;;;11.40;2.70;;;9.10;99.90;;;;;;5035813;28;20060;-71
2022/04/06 03:13:31;;;;;;;6.72;2.75;;;9.10;99.90;;;;;;5018698;28;20029;-71
2022/04/06 03:15:59;;;;;;;9.63;2.67;;;9.10;99.90;;;;;;5023132;28;20040;-71
2022/04/06 03:18:25;;;;;;;13.52;2.80;;;9.10;99.90;;;;;;5037587;28;20048;-71
2022/04/06 03:20:50;;;;;;;7.43;2.30;;;9.10;99.90;;;;;;5022214;28;20048;-71
2022/04/06 03:23:16;;;;;;;17.27;3.57;;;9.10;99.90;;;;;;5041857;28;20082;-71
2022/04/06 03:25:47;;;;;;;8.63;2.50;;;9.10;99.90;;;;;;5032358;28;20037;-71
2022/04/06 03:28:12;;;;;;;8.85;2.65;;;9.10;99.90;;;;;;5021342;28;20068;-71
2022/04/06 03:30:38;;;;;;;9.90;2.60;;;9.10;99.90;;;;;;5028336;28;20482;-71
2022/04/06 03:33:04;;;;;;;10.20;3.40;;;9.10;99.90;;;;;;5036507;28;20087;-71
2022/04/06 03:35:29;;;;;;;8.65;2.50;;;9.10;99.90;;;;;;5018672;28;20481;-71
2022/04/06 03:37:55;;;;;;;12.43;3.03;;;9.10;99.90;;;;;;5013196;28;20056;-71
2022/04/06 03:40:21;;;;;;;10.57;2.83;;;9.10;99.90;;;;;;5025671;28;20041;-71
2022/04/06 03:42:46;;;;;;;11.10;3.45;;;9.10;99.90;;;;;;5020306;28;20477;-71
2022/04/06 03:45:12;;;;;;;9.53;3.03;;;9.00;99.90;;;;;;5039033;28;20299;-72
2022/04/06 03:47:40;;;;;;;10.17;3.33;;;9.00;99.90;;;;;;5039877;28;20041;-71
2022/04/06 03:50:07;;;;;;;15.68;4.80;;;9.00;99.90;;;;;;5036158;28;20283;-71
2022/04/06 03:52:32;;;;;;;11.73;3.80;;;8.90;99.90;;;;;;5013317;28;20049;-71
2022/04/06 03:54:58;;;;;;;9.88;3.33;;;8.90;99.90;;;;;;5021260;28;20071;-71
2022/04/06 03:57:27;;;;;;;12.57;3.80;;;8.90;99.90;;;;;;5024244;28;20041;-71
2022/04/06 03:59:53;;;;;;;14.05;4.53;;;8.90;99.90;;;;;;5002942;28;20490;-71
2022/04/06 04:02:19;;;;;;;18.75;4.00;;;8.90;99.90;;;;;;5032069;28;20464;-71
2022/04/06 04:04:44;;;;;;;18.87;4.07;;;8.80;99.90;;;;;;5038602;28;20037;-71
2022/04/06 04:07:10;;;;;;;14.63;3.70;;;8.80;99.90;;;;;;5014856;28;20144;-71
2022/04/06 04:09:36;;;;;;;8.33;3.73;;;8.80;99.90;;;;;;5018728;28;20036;-71
2022/04/06 04:12:03;;;;;;;12.23;3.88;;;8.80;99.90;;;;;;5037912;28;20376;-71
2022/04/06 04:14:32;;;;;;;15.77;4.07;;;8.80;99.90;;;;;;5019940;28;20121;-71
2022/04/06 04:17:01;;;;;;;16.48;4.05;;;8.80;99.90;;;;;;5038261;28;20041;-71
2022/04/06 04:19:27;;;;;;;10.45;3.88;;;8.70;99.90;;;;;;5011552;28;20041;-72
2022/04/06 04:21:52;;;;;;;8.90;3.72;;;8.70;99.90;;;;;;5033215;28;20041;-71
2022/04/06 04:24:19;;;;;;;8.82;4.30;;;8.70;99.90;;;;;;5022366;28;20049;-71
2022/04/06 04:26:44;;;;;;;12.13;3.22;;;8.80;99.90;;;;;;5022457;28;20052;-71
2022/04/06 04:29:11;;;;;;;10.07;3.40;;;8.70;99.90;;;;;;5048954;28;20041;-71
2022/04/06 04:31:37;;;;;;;10.85;4.00;;;8.70;99.90;;;;;;5027481;28;20028;-71
2022/04/06 04:34:03;;;;;;;16.33;3.47;;;8.70;99.90;;;;;;5040389;28;20116;-71
2022/04/06 04:36:29;;;;;;;14.98;4.55;;;8.70;99.90;;;;;;5019170;28;20445;-71
2022/04/06 04:38:55;;;;;;;8.48;3.10;;;8.70;99.90;;;;;;5038543;28;20049;-71
2022/04/06 04:41:22;;;;;;;15.98;3.65;;;8.60;99.90;;;;;;5041585;28;20051;-71
2022/04/06 04:43:48;;;;;;;13.20;4.43;;;8.60;99.90;;;;;;5020478;28;20386;-71
2022/04/06 04:46:14;;;;;;;13.52;3.50;;;8.60;99.90;;;;;;5044796;28;20045;-71
2022/04/06 04:48:40;;;;;;;18.83;5.00;;;8.60;99.90;;;;;;5019931;28;20047;-71
2022/04/06 04:51:05;;;;;;;21.30;4.17;;;8.60;99.90;;;;;;5042576;28;20075;-71
2022/04/06 04:53:32;;;;;;;14.53;4.10;;;8.60;99.90;;;;;;5022869;28;20047;-71
2022/04/06 04:55:58;;;;;;;24.73;4.38;;;8.50;99.90;;;;;;5039173;28;20057;-71
2022/04/06 04:58:24;;;;;;;10.70;3.30;;;8.60;99.90;;;;;;5041598;28;20033;-71
2022/04/06 05:00:50;;;;;;;13.68;4.00;;;8.50;99.90;;;;;;5025545;28;20461;-71
2022/04/06 05:03:16;;;;;;;9.17;3.07;;;8.50;99.90;;;;;;5016984;28;20072;-71
2022/04/06 05:05:43;;;;;;;9.57;3.83;;;8.50;99.90;;;;;;5038668;28;20509;-71
2022/04/06 05:08:09;;;;;;;16.02;3.10;;;8.50;99.90;;;;;;5041929;28;20473;-71
2022/04/06 05:10:35;;;;;;;14.30;3.67;;;8.50;99.90;;;;;;5021511;28;20051;-71
2022/04/06 05:13:01;;;;;;;13.25;3.20;;;8.50;99.90;;;;;;5022977;28;20470;-71
2022/04/06 05:15:27;;;;;;;;;;;8.50;99.90;;;;;;5018208;28;20045;-75
2022/04/06 05:17:52;;;;;;;11.35;3.58;;;8.50;99.90;;;;;;5027643;28;19955;-71
2022/04/06 05:20:18;;;;;;;12.73;3.60;;;8.50;99.90;;;;;;5014326;28;20402;-71
2022/04/06 05:22:44;;;;;;;14.70;3.13;;;8.50;99.90;;;;;;5042767;28;20112;-72
2022/04/06 05:25:10;;;;;;;16.17;3.53;;;8.40;99.90;;;;;;5026638;28;20428;-71
2022/04/06 05:27:50;;;;;;;13.68;3.33;;;8.40;99.90;;;;;;5037337;28;20047;-74
2022/04/06 05:30:17;;;;;;;10.98;2.80;;;8.40;99.90;;;;;;5018096;28;20053;-74
2022/04/06 05:32:44;;;;;;;12.90;2.65;;;8.40;99.90;;;;;;5025514;28;20040;-75
2022/04/06 05:35:11;;;;;;;11.93;3.00;;;8.40;99.90;;;;;;5012846;28;20237;-74
2022/04/06 05:37:41;;;;;;;14.25;3.78;;;8.40;99.90;;;;;;5033481;28;20118;-74
2022/04/06 05:40:08;;;;;;;10.23;3.35;;;8.30;99.90;;;;;;5021357;28;20040;-71
2022/04/06 05:42:34;;;;;;;10.75;4.68;;;8.30;99.90;;;;;;5020952;28;20067;-75
2022/04/06 05:45:00;;;;;;;14.65;3.22;;;8.30;99.90;;;;;;5022561;28;20044;-76
2022/04/06 05:47:26;;;;;;;16.20;3.70;;;8.30;99.90;;;;;;5019858;28;20045;-71
2022/04/06 05:49:52;;;;;;;15.10;3.67;;;8.30;99.90;;;;;;5016943;28;20029;-71
2022/04/06 05:52:18;;;;;;;17.60;3.50;;;8.30;99.90;;;;;;5003411;28;20402;-71
2022/04/06 05:54:43;;;;;;;16.08;4.30;;;8.20;99.90;;;;;;5041028;28;20486;-70
2022/04/06 05:57:09;;;;;;;17.80;4.50;;;8.30;99.90;;;;;;5044845;22;20224;-69
2022/04/06 05:59:36;;;;;;;20.70;3.47;;;8.20;99.90;;;;;;5044388;28;20041;-69
2022/04/06 06:02:04;;;;;;;14.63;4.32;;;8.30;99.90;;;;;;5022718;28;20641;-69
2022/04/06 06:04:29;;;;;;;8.30;2.72;;;8.20;99.90;;;;;;5038039;28;20033;-69
2022/04/06 06:06:55;;;;;;;11.30;3.50;;;8.20;99.90;;;;;;5028581;28;20450;-69
2022/04/06 06:09:21;;;;;;;19.77;4.67;;;8.30;99.90;;;;;;5026990;28;20069;-69
2022/04/06 06:11:46;;;;;;;14.30;2.83;;;8.30;99.90;;;;;;5047119;28;20167;-70
2022/04/06 06:14:12;;;;;;;12.97;3.43;;;8.30;99.90;;;;;;5047012;28;20037;-69
2022/04/06 06:16:38;;;;;;;17.80;3.33;;;8.20;99.90;;;;;;5044732;28;20079;-70
2022/04/06 06:19:03;;;;;;;18.80;3.50;;;8.30;99.90;;;;;;5044567;28;20037;-70
2022/04/06 06:21:32;;;;;;;15.10;2.77;;;8.30;99.90;;;;;;5042139;28;20539;-69
2022/04/06 06:24:05;;;;;;;15.45;3.33;;;8.30;99.90;;;;;;5041992;28;20103;-70
2022/04/06 06:26:31;;;;;;;14.77;2.42;;;8.30;99.90;;;;;;5044185;28;20228;-69
2022/04/06 06:28:57;;;;;;;17.70;3.38;;;8.30;99.90;;;;;;5022388;28;20436;-69
2022/04/06 06:31:23;;;;;;;13.13;2.70;;;8.30;99.90;;;;;;5045754;28;20033;-69
2022/04/06 06:33:49;;;;;;;9.13;2.70;;;8.30;99.90;;;;;;5044641;28;20036;-70
2022/04/06 06:36:15;;;;;;;14.23;2.22;;;8.30;99.90;;;;;;5018991;28;20295;-69
2022/04/06 06:38:41;;;;;;;8.48;2.00;;;8.30;99.90;;;;;;5032420;28;20088;-69
2022/04/06 06:41:06;;;;;;;19.10;2.80;;;8.30;99.90;;;;;;5031614;28;20046;-70
2022/04/06 06:43:32;;;;;;;11.63;3.43;;;8.20;99.90;;;;;;5029686;28;20039;-69
2022/04/06 06:45:58;;;;;;;12.33;2.27;;;8.30;99.90;;;;;;5030099;28;20036;-69
2022/04/06 06:48:23;;;;;;;14.10;2.33;;;8.20;99.90;;;;;;5031032;28;20032;-69
2022/04/06 06:50:49;;;;;;;13.90;2.20;;;8.20;99.90;;;;;;5021043;28;20032;-69
2022/04/06 06:53:15;;;;;;;14.37;2.33;;;8.30;99.90;;;;;;5026384;28;20164;-69
2022/04/06 06:55:40;;;;;;;19.67;3.20;;;8.30;99.90;;;;;;5041304;28;20108;-70
2022/04/06 06:58:06;;;;;;;8.10;2.07;;;8.20;99.90;;;;;;5020553;28;20045;-70
2022/04/06 07:00:32;;;;;;;15.33;2.23;;;8.30;99.90;;;;;;5046298;28;20037;-70
2022/04/06 07:02:58;;;;;;;13.95;2.45;;;8.30;99.90;;;;;;5040773;28;20041;-69
2022/04/06 07:05:24;;;;;;;16.13;1.93;;;8.20;99.90;;;;;;5025060;28;20087;-69
2022/04/06 07:07:55;;;;;;;14.70;3.25;;;8.30;99.90;;;;;;5045873;28;20076;-70
2022/04/06 07:10:22;;;;;;;11.73;2.30;;;8.30;99.90;;;;;;5046998;28;20044;-70
2022/04/06 07:12:49;;;;;;;10.82;2.08;;;8.30;99.90;;;;;;5046836;28;20049;-70
2022/04/06 07:15:15;;;;;;;10.73;2.53;;;8.30;99.90;;;;;;5024971;28;20053;-70
2022/04/06 07:17:40;;;;;;;19.83;2.35;;;8.20;99.90;;;;;;5046879;28;20087;-70
2022/04/06 07:20:07;;;;;;;11.50;2.87;;;8.30;99.90;;;;;;5011014;28;20049;-70
2022/04/06 07:22:33;;;;;;;18.52;3.15;;;8.30;99.90;;;;;;5025357;28;20486;-70
2022/04/06 07:24:58;;;;;;;12.75;1.83;;;8.30;99.90;;;;;;5030015;28;20081;-69
2022/04/06 07:27:24;;;;;;;9.83;2.20;;;8.30;99.90;;;;;;5045211;28;20077;-70
2022/04/06 07:29:51;;;;;;;20.20;4.87;;;8.30;99.90;;;;;;5023642;28;20044;-69
2022/04/06 07:32:17;;;;;;;13.85;2.47;;;8.30;99.90;;;;;;5028805;28;20204;-69
2022/04/06 07:34:43;;;;;;;13.37;2.40;;;8.30;99.90;;;;;;5023238;28;20037;-69
2022/04/06 07:37:09;;;;;;;13.65;2.92;;;8.30;99.90;;;;;;5026324;28;20466;-69
2022/04/06 07:39:34;;;;;;;13.70;2.10;;;8.30;99.90;;;;;;5043643;28;20045;-69
2022/04/06 07:42:00;;;;;;;13.23;2.17;;;8.40;99.90;;;;;;5030009;28;20401;-71
2022/04/06 07:44:25;;;;;;;11.57;3.07;;;8.30;99.90;;;;;;5028670;28;20365;-71
2022/04/06 07:46:51;;;;;;;12.27;3.13;;;8.30;99.90;;;;;;5040743;28;20037;-69
2022/04/06 07:49:18;;;;;;;7.22;2.25;;;8.40;99.90;;;;;;5026190;28;20060;-70
2022/04/06 07:51:44;;;;;;;12.77;2.28;;;8.40;99.90;;;;;;5024865;28;20047;-70
2022/04/06 07:54:10;;;;;;;10.55;3.33;;;8.40;99.90;;;;;;5024931;28;20041;-69
2022/04/06 07:56:36;;;;;;;12.13;2.43;;;8.40;99.90;;;;;;5025960;28;20044;-69
2022/04/06 07:59:02;;;;;;;7.95;2.30;;;8.40;99.90;;;;;;5011558;28;20291;-69
2022/04/06 08:01:28;;;;;;;13.50;2.40;;;8.40;99.90;;;;;;5032632;28;20041;-70
2022/04/06 08:03:54;;;;;;;12.90;1.73;;;8.40;99.90;;;;;;5027513;28;20037;-69
2022/04/06 08:06:22;;;;;;;21.40;2.80;;;8.40;99.90;;;;;;5032283;28;20445;-70
2022/04/06 08:08:51;;;;;;;12.35;2.00;;;8.50;99.90;;;;;;5013639;28;20044;-70
2022/04/06 08:11:17;;;;;;;13.70;3.92;;;8.40;99.90;;;;;;5042598;28;20036;-70
2022/04/06 08:13:43;;;;;;;9.80;2.55;;;8.50;99.90;;;;;;5049657;28;20041;-70
2022/04/06 08:16:09;;;;;;;14.77;3.67;;;8.40;99.90;;;;;;5028903;28;20071;-70
2022/04/06 08:18:35;;;;;;;12.50;2.47;;;8.50;99.90;;;;;;5047531;28;20080;-70
2022/04/06 08:21:09;;;;;;;12.27;2.90;;;8.50;99.90;;;;;;5048676;28;20292;-70
2022/04/06 08:23:59;;;;;;;9.93;2.28;;;8.50;99.90;;;;;;5026182;28;20045;-70
2022/04/06 08:26:43;;;;;;;10.88;2.08;;;8.50;99.90;;;;;;5048117;28;20100;-70
2022/04/06 08:29:12;;;;;;;14.10;2.40;;;8.50;99.90;;;;;;5044939;28;20072;-70
2022/04/06 08:31:42;;;;;;;11.43;2.08;;;8.60;99.90;;;;;;5039654;28;20064;-70
2022/04/06 08:34:21;;;;;;;11.52;2.08;;;8.60;99.90;;;;;;5048042;28;20102;-70
2022/04/06 08:37:02;;;;;;;11.35;3.22;;;8.60;99.90;;;;;;5027693;28;20493;-70
2022/04/06 08:39:35;;;;;;;13.68;2.40;;;8.60;99.90;;;;;;5013417;28;20213;-70
2022/04/06 08:42:32;;;;;;;13.82;2.45;;;8.60;99.90;;;;;;5047960;28;20532;-70
2022/04/06 08:45:13;;;;;;;14.55;2.20;;;8.60;99.90;;;;;;5045365;28;20091;-70
2022/04/06 08:47:59;;;;;;;13.73;3.05;;;8.70;99.90;;;;;;5047785;28;20280;-70
2022/04/06 08:50:27;;;;;;;14.02;2.25;;;8.70;99.90;;;;;;5045052;28;20482;-70
2022/04/06 08:52:55;;;;;;;17.05;1.75;;;8.70;99.90;;;;;;5046921;28;20029;-70
2022/04/06 08:55:20;;;;;;;9.00;2.53;;;8.80;99.90;;;;;;5047712;28;20098;-70
2022/04/06 08:57:46;;;;;;;7.33;3.03;;;8.90;99.90;;;;;;5047876;28;20120;-70
2022/04/06 09:00:15;;;;;;;12.33;2.47;;;9.00;99.90;;;;;;5042974;28;20518;-70
2022/04/06 09:02:41;;;;;;;8.57;3.00;;;9.10;99.90;;;;;;5023860;28;20049;-70
2022/04/06 09:05:09;;;;;;;12.60;2.93;;;9.10;99.90;;;;;;5046584;28;20041;-70
2022/04/06 09:07:35;;;;;;;15.80;3.00;;;9.20;99.90;;;;;;5030255;28;20033;-70
2022/04/06 09:10:01;;;;;;;15.20;2.75;;;9.30;99.90;;;;;;5048188;28;20588;-70
2022/04/06 09:12:28;;;;;;;17.10;2.60;;;9.40;99.90;;;;;;5047202;28;20279;-70
2022/04/06 09:15:12;;;;;;;9.52;3.53;;;9.40;99.90;;;;;;5045638;28;20032;-70
2022/04/06 09:17:49;;;;;;;13.20;2.72;;;9.50;99.90;;;;;;5046983;28;20094;-70
2022/04/06 09:20:19;;;;;;;9.50;2.58;;;9.60;99.90;;;;;;5027685;28;20553;-70
2022/04/06 09:22:44;;;;;;;11.55;2.72;;;9.60;99.90;;;;;;5028846;28;20383;-70
2022/04/06 09:25:10;;;;;;;11.63;2.53;;;9.70;99.90;;;;;;5038162;28;20056;-70
2022/04/06 09:27:40;;;;;;;13.77;3.15;;;9.70;99.90;;;;;;5029776;28;20497;-70
2022/04/06 09:30:07;;;;;;;9.45;2.90;;;9.80;99.90;;;;;;5022601;28;20241;-70
2022/04/06 09:32:33;;;;;;;8.48;2.03;;;9.80;99.90;;;;;;5043428;28;20036;-70
2022/04/06 09:34:59;;;;;;;11.27;2.90;;;9.90;99.90;;;;;;5045812;28;20401;-70
2022/04/06 09:37:27;;;;;;;11.57;2.50;;;9.90;99.90;;;;;;5025984;28;20041;-70
2022/04/06 09:39:53;;;;;;;14.25;2.33;;;9.80;99.90;;;;;;5012132;28;20295;-70
2022/04/06 09:42:24;;;;;;;11.10;2.63;;;9.90;99.90;;;;;;5029252;28;20037;-70
2022/04/06 09:47:52;;;;;;;11.00;3.00;;;9.80;99.90;;;;;;5027514;28;20128;-70
2022/04/06 09:50:24;;;;;;;13.25;3.83;;;9.80;99.90;;;;;;5022883;28;20037;-70
2022/04/06 09:52:51;;;;;;;13.50;3.60;;;9.80;99.90;;;;;;5045373;28;20554;-70
2022/04/06 09:55:18;;;;;;;16.10;2.60;;;9.80;99.90;;;;;;5028287;28;20045;-70
2022/04/06 09:57:52;;;;;;;11.48;3.72;;;9.80;99.90;;;;;;5027265;28;20507;-70
2022/04/06 10:00:20;;;;;;;16.50;3.28;;;9.80;99.90;;;;;;5026440;28;20269;-70
2022/04/06 10:03:05;;;;;;;8.48;2.72;;;9.80;99.90;;;;;;5026945;28;20045;-70
2022/04/06 10:05:33;;;;;;;11.40;2.88;;;9.80;99.90;;;;;;5040989;28;20250;-70
2022/04/06 10:08:04;;;;;;;15.88;3.42;;;9.70;99.90;;;;;;5026152;28;20060;-70
2022/04/06 10:10:31;;;;;;;16.02;2.67;;;9.70;99.90;;;;;;5028813;28;20071;-70
2022/04/06 10:12:57;;;;;;;13.00;3.38;;;9.70;99.90;;;;;;5022473;28;20053;-70
2022/04/06 10:15:26;;;;;;;17.17;3.10;;;9.70;99.90;;;;;;5041726;28;20041;-70
2022/04/06 10:17:52;;;;;;;9.93;2.58;;;9.70;99.90;;;;;;5027055;28;20075;-70
2022/04/06 10:20:36;;;;;;;22.42;3.53;;;9.70;99.90;;;;;;5048097;28;20086;-71
2022/04/06 10:23:39;;;;;;;14.98;3.45;;;9.70;99.90;;;;;;5026395;28;20037;-70
2022/04/06 10:26:29;;;;;;;15.65;3.28;;;9.70;99.90;;;;;;5044382;28;20041;-70
2022/04/06 10:28:55;;;;;;;13.05;3.08;;;9.70;99.90;;;;;;5043489;28;20239;-71
2022/04/06 10:31:22;;;;;;;10.13;2.87;;;9.70;99.90;;;;;;5026269;28;20322;-70
2022/04/06 10:34:19;;;;;;;12.43;2.78;;;9.70;99.90;;;;;;5025452;28;20520;-70
2022/04/06 10:37:10;;;;;;;15.43;2.65;;;9.70;99.90;;;;;;5028133;28;20085;-70
2022/04/06 10:39:57;;;;;;;15.18;4.53;;;9.70;99.90;;;;;;5044156;28;20037;-70
2022/04/06 10:42:34;;;;;;;12.63;2.88;;;9.60;99.90;;;;;;5019266;28;20041;-70
2022/04/06 10:45:03;;;;;;;17.60;2.70;;;9.70;99.90;;;;;;5042765;28;20045;-70
2022/04/06 10:47:32;;;;;;;13.70;3.63;;;9.60;99.90;;;;;;5042768;28;20067;-70
2022/04/06 10:50:15;;;;;;;18.75;3.38;;;9.70;99.90;;;;;;5046995;28;20288;-70
2022/04/06 10:52:42;;;;;;;19.67;3.53;;;9.70;99.90;;;;;;5027423;28;20051;-70
2022/04/06 10:55:23;;;;;;;18.25;3.72;;;9.80;99.90;;;;;;5024064;28;20037;-70
2022/04/06 10:58:03;;;;;;;15.32;3.90;;;9.80;99.90;;;;;;5040437;28;20045;-70
2022/04/06 11:00:30;;;;;;;11.35;2.72;;;9.80;99.90;;;;;;5019260;28;20136;-70
2022/04/06 11:03:15;;;;;;;23.33;3.63;;;9.80;99.90;;;;;;5046771;28;20056;-70
2022/04/06 11:05:45;;;;;;;19.55;3.63;;;10.00;99.90;;;;;;5009812;28;20049;-70
2022/04/06 11:11:40;;;;;;;15.30;4.07;;;10.20;99.90;;;;;;5023672;28;20037;-70
2022/04/06 11:14:06;;;;;;;18.95;3.97;;;10.30;99.90;;;;;;5037069;28;20134;-70
2022/04/06 11:16:48;;;;;;;16.30;3.25;;;10.50;99.90;;;;;;5040413;28;20033;-70
2022/04/06 11:19:14;;;;;;;17.30;2.90;;;10.60;99.90;;;;;;5019838;28;20532;-70
2022/04/06 11:21:53;;;;;;;13.88;2.85;;;10.60;99.90;;;;;;5046515;28;20033;-70
2022/04/06 11:24:25;;;;;;;11.63;3.40;;;10.70;99.90;;;;;;5041179;28;20334;-70
2022/04/06 11:26:51;;;;;;;13.30;2.95;;;10.80;99.90;;;;;;5043853;28;20418;-70
2022/04/06 11:29:17;;;;;;;15.98;3.72;;;11.00;99.90;;;;;;5017921;28;20048;-70
2022/04/06 11:31:57;;;;;;;12.07;2.55;;;11.10;99.90;;;;;;5045261;28;20438;-70
2022/04/06 11:34:30;;;;;;;13.98;2.97;;;11.20;99.90;;;;;;5024001;28;20040;-69
2022/04/06 11:36:58;;;;;;;35.95;5.53;;;11.40;99.90;;;;;;5041985;28;20072;-69
2022/04/06 11:39:24;;;;;;;13.27;3.15;;;11.50;99.90;;;;;;5048602;28;20234;-70
2022/04/06 11:41:50;;;;;;;11.38;3.10;;;11.60;99.90;;;;;;5029428;28;20045;-70
2022/04/06 11:44:21;;;;;;;11.65;3.72;;;11.70;99.90;;;;;;5043060;28;20494;-70
2022/04/06 11:46:47;;;;;;;13.75;2.72;;;11.80;99.90;;;;;;5029799;28;20420;-70
2022/04/06 11:49:12;;;;;;;16.42;2.72;;;11.90;99.90;;;;;;5031902;28;20044;-70
2022/04/06 11:51:39;;;;;;;9.63;2.67;;;12.00;99.90;;;;;;5027801;28;20481;-70
2022/04/06 11:54:05;;;;;;;;;;;12.00;99.90;;;;;;5010361;28;20041;-70
2022/04/06 11:56:31;;;;;;;10.88;2.30;;;12.00;99.90;;;;;;5053173;22;20472;-66
2022/04/06 11:58:57;;;;;;;13.10;2.70;;;12.00;99.90;;;;;;5063372;28;20189;-66
2022/04/06 12:01:28;;;;;;;12.90;2.80;;;12.00;99.90;;;;;;5063658;28;20083;-66
2022/04/06 12:03:58;;;;;;;12.73;2.80;;;12.00;99.90;;;;;;5047644;28;20353;-66
2022/04/06 12:06:35;;;;;;;11.00;2.40;;;12.00;99.90;;;;;;5021852;28;20404;-66
2022/04/06 12:09:01;;;;;;;11.82;2.97;;;12.00;99.90;;;;;;5039898;28;20032;-66
2022/04/06 12:11:27;;;;;;;9.97;3.00;;;11.90;99.90;;;;;;5043086;28;20043;-66
2022/04/06 12:13:55;;;;;;;11.27;2.97;;;12.00;99.90;;;;;;5037218;28;20097;-66
2022/04/06 12:16:24;;;;;;;13.95;2.47;;;11.90;99.90;;;;;;5064216;28;20040;-66
2022/04/06 12:18:51;;;;;;;17.48;2.78;;;11.90;99.90;;;;;;5032242;28;20050;-66
2022/04/06 12:21:21;;;;;;;17.73;2.25;;;12.00;99.90;;;;;;5060660;28;20188;-66
2022/04/06 12:23:48;;;;;;;10.82;2.80;;;12.00;99.90;;;;;;5062922;28;20040;-66
2022/04/06 12:26:15;;;;;;;14.55;3.70;;;12.00;99.90;;;;;;5039518;28;20071;-66
2022/04/06 12:28:43;;;;;;;8.90;2.40;;;12.00;99.90;;;;;;5056593;28;20139;-66
2022/04/06 12:31:10;;;;;;;13.65;2.63;;;12.00;99.90;;;;;;5027188;28;20181;-67
2022/04/06 12:33:50;;;;;;;16.00;4.45;;;12.10;99.90;;;;;;5062828;28;20040;-67
2022/04/06 12:36:28;;;;;;;12.40;2.67;;;12.10;99.90;;;;;;5059815;28;20058;-66
2022/04/06 12:38:57;;;;;;;14.55;2.72;;;12.10;99.90;;;;;;5058753;28;20111;-67
2022/04/06 12:41:25;;;;;;;13.95;2.80;;;12.10;99.90;;;;;;5045398;28;20071;-67
2022/04/06 12:43:51;;;;;;;19.05;2.75;;;12.10;99.90;;;;;;5032168;28;20037;-67
2022/04/06 12:46:36;;;;;;;;;;;12.00;99.90;;;;;;5056802;28;20093;-66
2022/04/06 12:49:21;;;;;;;19.60;2.95;;;12.00;99.90;;;;;;5039094;28;20376;-67
2022/04/06 12:51:47;;;;;;;14.75;2.75;;;12.00;99.90;;;;;;5040748;28;20477;-66
2022/04/06 12:54:13;;;;;;;16.23;2.90;;;12.00;99.90;;;;;;5034943;28;20041;-67
2022/04/06 12:56:59;;;;;;;15.10;2.58;;;12.00;99.90;;;;;;5059542;28;20048;-67
2022/04/06 12:59:36;;;;;;;9.80;2.15;;;11.90;99.90;;;;;;5032130;28;20487;-67
2022/04/06 13:02:02;;;;;;;;;;;11.80;99.90;;;;;;5043933;28;20148;-66